sensor_id;sensor_type;location;lat;lon;timestamp;P1;durP1;ratioP1;P2;durP2;ratioP2
21591;SDS011;10958;50.892;3.992;2022-10-15T00:01:53;23.65;;;17.60;;
21591;SDS011;10958;50.892;3.992;2022-10-15T00:04:19;20.27;;;16.97;;
21591;SDS011;10958;50.892;3.992;2022-10-15T00:06:47;20.60;;;16.38;;
21591;SDS011;10958;50.892;3.992;2022-10-15T00:09:15;23.92;;;16.27;;
21591;SDS011;10958;50.892;3.992;2022-10-15T00:11:43;20.53;;;16.37;;
21591;SDS011;10958;50.892;3.992;2022-10-15T00:14:09;20.17;;;15.90;;
21591;SDS011;10958;50.892;3.992;2022-10-15T00:16:35;22.25;;;16.50;;
21591;SDS011;10958;50.892;3.992;2022-10-15T00:19:01;21.83;;;16.95;;
21591;SDS011;10958;50.892;3.992;2022-10-15T00:21:27;25.13;;;16.90;;
21591;SDS011;10958;50.892;3.992;2022-10-15T00:23:52;21.92;;;17.13;;
21591;SDS011;10958;50.892;3.992;2022-10-15T00:26:25;23.98;;;17.73;;
21591;SDS011;10958;50.892;3.992;2022-10-15T00:28:55;22.50;;;16.67;;
21591;SDS011;10958;50.892;3.992;2022-10-15T00:31:23;21.98;;;17.50;;
21591;SDS011;10958;50.892;3.992;2022-10-15T00:33:51;20.87;;;17.40;;
21591;SDS011;10958;50.892;3.992;2022-10-15T00:36:26;22.27;;;16.75;;
21591;SDS011;10958;50.892;3.992;2022-10-15T00:38:58;20.55;;;16.65;;
21591;SDS011;10958;50.892;3.992;2022-10-15T00:41:31;23.70;;;17.58;;
21591;SDS011;10958;50.892;3.992;2022-10-15T00:44:44;23.47;;;17.60;;
21591;SDS011;10958;50.892;3.992;2022-10-15T00:49:39;24.63;;;17.50;;
21591;SDS011;10958;50.892;3.992;2022-10-15T00:54:37;22.08;;;17.40;;
21591;SDS011;10958;50.892;3.992;2022-10-15T00:57:07;22.15;;;16.77;;
21591;SDS011;10958;50.892;3.992;2022-10-15T00:59:35;23.88;;;16.88;;
21591;SDS011;10958;50.892;3.992;2022-10-15T01:02:08;22.20;;;16.92;;
21591;SDS011;10958;50.892;3.992;2022-10-15T01:04:37;21.38;;;16.92;;
21591;SDS011;10958;50.892;3.992;2022-10-15T01:07:04;23.33;;;16.85;;
21591;SDS011;10958;50.892;3.992;2022-10-15T01:09:32;23.05;;;17.58;;
21591;SDS011;10958;50.892;3.992;2022-10-15T01:11:57;21.15;;;17.05;;
21591;SDS011;10958;50.892;3.992;2022-10-15T01:14:27;20.83;;;16.83;;
21591;SDS011;10958;50.892;3.992;2022-10-15T01:17:19;19.48;;;16.10;;
21591;SDS011;10958;50.892;3.992;2022-10-15T01:27:59;20.73;;;17.52;;
21591;SDS011;10958;50.892;3.992;2022-10-15T01:30:47;22.73;;;15.63;;
21591;SDS011;10958;50.892;3.992;2022-10-15T01:35:56;22.27;;;16.50;;
21591;SDS011;10958;50.892;3.992;2022-10-15T01:43:46;23.23;;;16.90;;
21591;SDS011;10958;50.892;3.992;2022-10-15T01:46:13;23.63;;;17.45;;
21591;SDS011;10958;50.892;3.992;2022-10-15T01:48:44;23.80;;;17.77;;
21591;SDS011;10958;50.892;3.992;2022-10-15T01:51:11;22.30;;;17.83;;
21591;SDS011;10958;50.892;3.992;2022-10-15T01:53:39;21.00;;;15.93;;
21591;SDS011;10958;50.892;3.992;2022-10-15T01:56:10;23.42;;;17.40;;
21591;SDS011;10958;50.892;3.992;2022-10-15T01:58:40;22.52;;;16.90;;
21591;SDS011;10958;50.892;3.992;2022-10-15T02:06:12;25.67;;;17.70;;
21591;SDS011;10958;50.892;3.992;2022-10-15T02:11:25;23.27;;;17.85;;
21591;SDS011;10958;50.892;3.992;2022-10-15T02:14:02;25.10;;;16.73;;
21591;SDS011;10958;50.892;3.992;2022-10-15T02:16:40;24.85;;;19.10;;
21591;SDS011;10958;50.892;3.992;2022-10-15T02:19:14;23.48;;;18.85;;
21591;SDS011;10958;50.892;3.992;2022-10-15T02:24:51;29.05;;;20.60;;
21591;SDS011;10958;50.892;3.992;2022-10-15T02:27:20;32.20;;;21.13;;
21591;SDS011;10958;50.892;3.992;2022-10-15T02:29:48;31.33;;;22.95;;
21591;SDS011;10958;50.892;3.992;2022-10-15T02:32:15;34.92;;;24.05;;
21591;SDS011;10958;50.892;3.992;2022-10-15T02:34:46;36.90;;;23.42;;
21591;SDS011;10958;50.892;3.992;2022-10-15T02:37:14;33.38;;;22.80;;
21591;SDS011;10958;50.892;3.992;2022-10-15T02:39:44;38.85;;;24.38;;
21591;SDS011;10958;50.892;3.992;2022-10-15T02:42:10;38.20;;;25.00;;
21591;SDS011;10958;50.892;3.992;2022-10-15T02:44:36;35.17;;;23.60;;
21591;SDS011;10958;50.892;3.992;2022-10-15T02:47:02;38.40;;;23.10;;
21591;SDS011;10958;50.892;3.992;2022-10-15T02:49:28;36.90;;;23.55;;
21591;SDS011;10958;50.892;3.992;2022-10-15T02:51:56;36.25;;;22.52;;
21591;SDS011;10958;50.892;3.992;2022-10-15T02:54:22;38.03;;;22.70;;
21591;SDS011;10958;50.892;3.992;2022-10-15T02:56:48;35.00;;;22.45;;
21591;SDS011;10958;50.892;3.992;2022-10-15T02:59:14;31.48;;;20.90;;
21591;SDS011;10958;50.892;3.992;2022-10-15T03:01:40;30.75;;;19.95;;
21591;SDS011;10958;50.892;3.992;2022-10-15T03:04:06;30.67;;;21.45;;
21591;SDS011;10958;50.892;3.992;2022-10-15T03:06:31;34.10;;;20.60;;
21591;SDS011;10958;50.892;3.992;2022-10-15T03:08:58;28.95;;;20.00;;
21591;SDS011;10958;50.892;3.992;2022-10-15T03:11:23;31.98;;;20.75;;
21591;SDS011;10958;50.892;3.992;2022-10-15T03:13:49;29.75;;;19.88;;
21591;SDS011;10958;50.892;3.992;2022-10-15T03:16:17;30.42;;;20.00;;
21591;SDS011;10958;50.892;3.992;2022-10-15T03:18:43;26.93;;;18.27;;
21591;SDS011;10958;50.892;3.992;2022-10-15T03:21:08;31.73;;;19.80;;
21591;SDS011;10958;50.892;3.992;2022-10-15T03:23:34;25.77;;;18.13;;
21591;SDS011;10958;50.892;3.992;2022-10-15T03:26:00;26.67;;;18.25;;
21591;SDS011;10958;50.892;3.992;2022-10-15T03:28:28;26.75;;;19.08;;
21591;SDS011;10958;50.892;3.992;2022-10-15T03:30:54;24.00;;;17.13;;
21591;SDS011;10958;50.892;3.992;2022-10-15T03:33:22;24.80;;;17.80;;
21591;SDS011;10958;50.892;3.992;2022-10-15T03:35:48;23.83;;;16.95;;
21591;SDS011;10958;50.892;3.992;2022-10-15T03:38:15;21.58;;;16.48;;
21591;SDS011;10958;50.892;3.992;2022-10-15T03:40:42;22.00;;;16.33;;
21591;SDS011;10958;50.892;3.992;2022-10-15T03:43:09;22.88;;;16.27;;
21591;SDS011;10958;50.892;3.992;2022-10-15T03:45:35;19.70;;;15.23;;
21591;SDS011;10958;50.892;3.992;2022-10-15T03:48:00;19.83;;;15.13;;
21591;SDS011;10958;50.892;3.992;2022-10-15T03:50:26;20.10;;;14.80;;
21591;SDS011;10958;50.892;3.992;2022-10-15T03:52:52;19.80;;;15.93;;
21591;SDS011;10958;50.892;3.992;2022-10-15T03:55:18;19.95;;;14.82;;
21591;SDS011;10958;50.892;3.992;2022-10-15T03:57:44;20.20;;;14.52;;
21591;SDS011;10958;50.892;3.992;2022-10-15T04:00:11;20.80;;;14.15;;
21591;SDS011;10958;50.892;3.992;2022-10-15T04:02:38;19.50;;;14.70;;
21591;SDS011;10958;50.892;3.992;2022-10-15T04:05:06;19.02;;;14.70;;
21591;SDS011;10958;50.892;3.992;2022-10-15T04:07:37;20.05;;;14.68;;
21591;SDS011;10958;50.892;3.992;2022-10-15T04:10:03;18.67;;;13.98;;
21591;SDS011;10958;50.892;3.992;2022-10-15T04:12:29;20.55;;;15.23;;
21591;SDS011;10958;50.892;3.992;2022-10-15T04:14:55;22.15;;;15.43;;
21591;SDS011;10958;50.892;3.992;2022-10-15T04:17:21;22.13;;;15.30;;
21591;SDS011;10958;50.892;3.992;2022-10-15T04:19:49;20.70;;;15.07;;
21591;SDS011;10958;50.892;3.992;2022-10-15T04:22:17;19.87;;;14.47;;
21591;SDS011;10958;50.892;3.992;2022-10-15T04:24:45;20.13;;;14.05;;
21591;SDS011;10958;50.892;3.992;2022-10-15T04:27:12;19.33;;;14.15;;
21591;SDS011;10958;50.892;3.992;2022-10-15T04:29:38;19.60;;;14.32;;
21591;SDS011;10958;50.892;3.992;2022-10-15T04:32:04;18.98;;;14.02;;
21591;SDS011;10958;50.892;3.992;2022-10-15T04:34:30;19.42;;;14.25;;
21591;SDS011;10958;50.892;3.992;2022-10-15T04:36:56;20.50;;;14.23;;
21591;SDS011;10958;50.892;3.992;2022-10-15T04:39:22;21.10;;;14.43;;
21591;SDS011;10958;50.892;3.992;2022-10-15T04:41:53;21.35;;;14.35;;
21591;SDS011;10958;50.892;3.992;2022-10-15T04:44:19;18.15;;;13.82;;
21591;SDS011;10958;50.892;3.992;2022-10-15T04:46:54;21.75;;;15.10;;
21591;SDS011;10958;50.892;3.992;2022-10-15T04:51:46;18.55;;;13.60;;
21591;SDS011;10958;50.892;3.992;2022-10-15T04:54:12;23.58;;;14.23;;
21591;SDS011;10958;50.892;3.992;2022-10-15T04:56:38;20.25;;;13.18;;
21591;SDS011;10958;50.892;3.992;2022-10-15T04:59:05;21.08;;;13.98;;
21591;SDS011;10958;50.892;3.992;2022-10-15T05:01:39;20.23;;;13.80;;
21591;SDS011;10958;50.892;3.992;2022-10-15T05:04:13;21.85;;;14.10;;
21591;SDS011;10958;50.892;3.992;2022-10-15T05:06:39;20.45;;;13.93;;
21591;SDS011;10958;50.892;3.992;2022-10-15T05:09:06;21.50;;;12.93;;
21591;SDS011;10958;50.892;3.992;2022-10-15T05:11:34;20.10;;;13.48;;
21591;SDS011;10958;50.892;3.992;2022-10-15T05:14:01;20.13;;;13.07;;
21591;SDS011;10958;50.892;3.992;2022-10-15T05:16:27;19.15;;;12.65;;
21591;SDS011;10958;50.892;3.992;2022-10-15T05:18:57;21.25;;;13.82;;
21591;SDS011;10958;50.892;3.992;2022-10-15T05:21:25;17.30;;;12.18;;
21591;SDS011;10958;50.892;3.992;2022-10-15T05:23:51;17.58;;;11.93;;
21591;SDS011;10958;50.892;3.992;2022-10-15T05:26:19;16.92;;;11.88;;
21591;SDS011;10958;50.892;3.992;2022-10-15T05:28:49;17.95;;;11.98;;
21591;SDS011;10958;50.892;3.992;2022-10-15T05:31:17;16.90;;;11.77;;
21591;SDS011;10958;50.892;3.992;2022-10-15T05:33:45;19.52;;;11.35;;
21591;SDS011;10958;50.892;3.992;2022-10-15T05:36:14;17.27;;;11.47;;
21591;SDS011;10958;50.892;3.992;2022-10-15T05:38:41;16.02;;;11.50;;
21591;SDS011;10958;50.892;3.992;2022-10-15T05:41:13;16.33;;;10.35;;
21591;SDS011;10958;50.892;3.992;2022-10-15T05:43:38;15.80;;;10.53;;
21591;SDS011;10958;50.892;3.992;2022-10-15T05:46:04;17.25;;;10.75;;
21591;SDS011;10958;50.892;3.992;2022-10-15T05:48:30;16.25;;;9.82;;
21591;SDS011;10958;50.892;3.992;2022-10-15T05:51:01;14.70;;;10.02;;
21591;SDS011;10958;50.892;3.992;2022-10-15T05:53:31;12.73;;;8.27;;
21591;SDS011;10958;50.892;3.992;2022-10-15T05:55:56;14.20;;;7.97;;
21591;SDS011;10958;50.892;3.992;2022-10-15T05:58:26;12.30;;;8.70;;
21591;SDS011;10958;50.892;3.992;2022-10-15T06:00:54;15.38;;;8.63;;
21591;SDS011;10958;50.892;3.992;2022-10-15T06:03:23;11.63;;;8.65;;
21591;SDS011;10958;50.892;3.992;2022-10-15T06:05:50;14.90;;;9.18;;
21591;SDS011;10958;50.892;3.992;2022-10-15T06:08:19;13.60;;;8.48;;
21591;SDS011;10958;50.892;3.992;2022-10-15T06:10:45;13.80;;;8.85;;
21591;SDS011;10958;50.892;3.992;2022-10-15T06:13:12;13.10;;;8.18;;
21591;SDS011;10958;50.892;3.992;2022-10-15T06:15:39;16.25;;;8.60;;
21591;SDS011;10958;50.892;3.992;2022-10-15T06:18:12;13.30;;;8.75;;
21591;SDS011;10958;50.892;3.992;2022-10-15T06:20:40;13.43;;;8.85;;
21591;SDS011;10958;50.892;3.992;2022-10-15T06:23:07;13.57;;;8.80;;
21591;SDS011;10958;50.892;3.992;2022-10-15T06:25:34;12.63;;;8.73;;
21591;SDS011;10958;50.892;3.992;2022-10-15T06:28:04;14.82;;;8.27;;
21591;SDS011;10958;50.892;3.992;2022-10-15T06:30:30;12.07;;;8.35;;
21591;SDS011;10958;50.892;3.992;2022-10-15T06:32:57;14.90;;;8.95;;
21591;SDS011;10958;50.892;3.992;2022-10-15T06:35:25;13.13;;;8.55;;
21591;SDS011;10958;50.892;3.992;2022-10-15T06:37:54;15.77;;;8.98;;
21591;SDS011;10958;50.892;3.992;2022-10-15T06:40:20;15.00;;;9.38;;
21591;SDS011;10958;50.892;3.992;2022-10-15T06:42:46;17.08;;;9.55;;
21591;SDS011;10958;50.892;3.992;2022-10-15T06:45:12;15.38;;;9.45;;
21591;SDS011;10958;50.892;3.992;2022-10-15T06:47:41;16.75;;;10.43;;
21591;SDS011;10958;50.892;3.992;2022-10-15T06:50:06;15.10;;;9.93;;
21591;SDS011;10958;50.892;3.992;2022-10-15T06:52:33;20.33;;;9.95;;
21591;SDS011;10958;50.892;3.992;2022-10-15T06:54:59;15.88;;;10.45;;
21591;SDS011;10958;50.892;3.992;2022-10-15T06:57:26;15.38;;;10.15;;
21591;SDS011;10958;50.892;3.992;2022-10-15T06:59:52;14.10;;;9.73;;
21591;SDS011;10958;50.892;3.992;2022-10-15T07:02:18;17.15;;;10.32;;
21591;SDS011;10958;50.892;3.992;2022-10-15T07:04:44;15.80;;;9.50;;
21591;SDS011;10958;50.892;3.992;2022-10-15T07:07:10;16.52;;;10.00;;
21591;SDS011;10958;50.892;3.992;2022-10-15T07:09:36;15.68;;;10.32;;
21591;SDS011;10958;50.892;3.992;2022-10-15T07:12:02;16.42;;;9.90;;
21591;SDS011;10958;50.892;3.992;2022-10-15T07:14:37;15.60;;;10.38;;
21591;SDS011;10958;50.892;3.992;2022-10-15T07:17:03;18.15;;;10.35;;
21591;SDS011;10958;50.892;3.992;2022-10-15T07:19:29;15.85;;;9.68;;
21591;SDS011;10958;50.892;3.992;2022-10-15T07:21:56;16.58;;;10.60;;
21591;SDS011;10958;50.892;3.992;2022-10-15T07:24:22;16.75;;;9.43;;
21591;SDS011;10958;50.892;3.992;2022-10-15T07:26:48;15.88;;;8.52;;
21591;SDS011;10958;50.892;3.992;2022-10-15T07:29:14;15.55;;;9.60;;
21591;SDS011;10958;50.892;3.992;2022-10-15T07:31:41;13.10;;;8.75;;
21591;SDS011;10958;50.892;3.992;2022-10-15T07:34:07;14.45;;;9.68;;
21591;SDS011;10958;50.892;3.992;2022-10-15T07:36:33;15.23;;;9.85;;
21591;SDS011;10958;50.892;3.992;2022-10-15T07:38:59;16.08;;;9.50;;
21591;SDS011;10958;50.892;3.992;2022-10-15T07:41:25;13.30;;;8.43;;
21591;SDS011;10958;50.892;3.992;2022-10-15T07:43:51;13.27;;;9.13;;
21591;SDS011;10958;50.892;3.992;2022-10-15T07:46:18;13.15;;;8.63;;
21591;SDS011;10958;50.892;3.992;2022-10-15T07:48:44;12.98;;;8.10;;
21591;SDS011;10958;50.892;3.992;2022-10-15T07:51:09;14.05;;;8.20;;
21591;SDS011;10958;50.892;3.992;2022-10-15T07:53:36;12.13;;;8.25;;
21591;SDS011;10958;50.892;3.992;2022-10-15T07:56:03;13.88;;;8.70;;
21591;SDS011;10958;50.892;3.992;2022-10-15T07:58:34;13.77;;;8.13;;
21591;SDS011;10958;50.892;3.992;2022-10-15T08:01:07;13.65;;;8.38;;
21591;SDS011;10958;50.892;3.992;2022-10-15T08:03:35;16.65;;;9.05;;
21591;SDS011;10958;50.892;3.992;2022-10-15T08:06:04;12.23;;;6.53;;
21591;SDS011;10958;50.892;3.992;2022-10-15T08:08:33;11.55;;;7.43;;
21591;SDS011;10958;50.892;3.992;2022-10-15T08:11:06;10.82;;;6.95;;
21591;SDS011;10958;50.892;3.992;2022-10-15T08:13:32;10.38;;;7.07;;
21591;SDS011;10958;50.892;3.992;2022-10-15T08:15:58;10.88;;;6.63;;
21591;SDS011;10958;50.892;3.992;2022-10-15T08:18:24;9.82;;;6.38;;
21591;SDS011;10958;50.892;3.992;2022-10-15T08:20:51;7.70;;;5.07;;
21591;SDS011;10958;50.892;3.992;2022-10-15T08:23:21;8.38;;;4.75;;
21591;SDS011;10958;50.892;3.992;2022-10-15T08:25:47;6.40;;;4.72;;
21591;SDS011;10958;50.892;3.992;2022-10-15T08:28:12;7.72;;;4.95;;
21591;SDS011;10958;50.892;3.992;2022-10-15T08:30:38;6.65;;;4.63;;
21591;SDS011;10958;50.892;3.992;2022-10-15T08:33:04;6.13;;;4.43;;
21591;SDS011;10958;50.892;3.992;2022-10-15T08:35:30;4.85;;;3.17;;
21591;SDS011;10958;50.892;3.992;2022-10-15T08:37:59;6.32;;;4.38;;
21591;SDS011;10958;50.892;3.992;2022-10-15T08:40:25;4.20;;;3.20;;
21591;SDS011;10958;50.892;3.992;2022-10-15T08:42:53;5.18;;;3.47;;
21591;SDS011;10958;50.892;3.992;2022-10-15T08:45:22;8.73;;;6.07;;
21591;SDS011;10958;50.892;3.992;2022-10-15T08:47:58;3.58;;;2.72;;
21591;SDS011;10958;50.892;3.992;2022-10-15T08:50:37;3.55;;;2.60;;
21591;SDS011;10958;50.892;3.992;2022-10-15T08:53:15;3.05;;;2.40;;
21591;SDS011;10958;50.892;3.992;2022-10-15T08:55:44;2.30;;;1.92;;
21591;SDS011;10958;50.892;3.992;2022-10-15T09:00:58;6.03;;;3.08;;
21591;SDS011;10958;50.892;3.992;2022-10-15T09:03:33;5.55;;;2.83;;
21591;SDS011;10958;50.892;3.992;2022-10-15T09:14:37;6.30;;;2.55;;
21591;SDS011;10958;50.892;3.992;2022-10-15T09:17:13;4.30;;;2.22;;
21591;SDS011;10958;50.892;3.992;2022-10-15T09:19:49;4.60;;;3.13;;
21591;SDS011;10958;50.892;3.992;2022-10-15T09:22:40;4.75;;;2.67;;
21591;SDS011;10958;50.892;3.992;2022-10-15T09:25:13;3.45;;;3.00;;
21591;SDS011;10958;50.892;3.992;2022-10-15T09:27:44;2.67;;;2.47;;
21591;SDS011;10958;50.892;3.992;2022-10-15T09:36:10;8.57;;;6.25;;
21591;SDS011;10958;50.892;3.992;2022-10-15T09:41:35;7.00;;;5.32;;
21591;SDS011;10958;50.892;3.992;2022-10-15T09:44:27;15.02;;;8.43;;
21591;SDS011;10958;50.892;3.992;2022-10-15T09:47:06;7.75;;;5.75;;
21591;SDS011;10958;50.892;3.992;2022-10-15T09:49:48;8.68;;;5.30;;
21591;SDS011;10958;50.892;3.992;2022-10-15T09:58:01;7.55;;;4.80;;
21591;SDS011;10958;50.892;3.992;2022-10-15T10:03:34;4.65;;;3.15;;
21591;SDS011;10958;50.892;3.992;2022-10-15T10:06:06;3.83;;;2.80;;
21591;SDS011;10958;50.892;3.992;2022-10-15T10:11:24;4.60;;;3.03;;
21591;SDS011;10958;50.892;3.992;2022-10-15T10:13:57;5.13;;;3.72;;
21591;SDS011;10958;50.892;3.992;2022-10-15T10:16:25;3.55;;;2.58;;
21591;SDS011;10958;50.892;3.992;2022-10-15T10:19:10;7.93;;;5.03;;
21591;SDS011;10958;50.892;3.992;2022-10-15T10:21:38;8.18;;;5.32;;
21591;SDS011;10958;50.892;3.992;2022-10-15T10:26:44;11.07;;;6.18;;
21591;SDS011;10958;50.892;3.992;2022-10-15T10:29:11;8.82;;;5.65;;
21591;SDS011;10958;50.892;3.992;2022-10-15T10:31:45;3.55;;;3.25;;
21591;SDS011;10958;50.892;3.992;2022-10-15T10:34:22;16.15;;;9.15;;
21591;SDS011;10958;50.892;3.992;2022-10-15T10:36:52;12.93;;;3.67;;
21591;SDS011;10958;50.892;3.992;2022-10-15T10:39:24;13.15;;;6.35;;
21591;SDS011;10958;50.892;3.992;2022-10-15T10:41:56;17.55;;;7.88;;
21591;SDS011;10958;50.892;3.992;2022-10-15T10:44:26;7.18;;;4.80;;
21591;SDS011;10958;50.892;3.992;2022-10-15T10:47:16;5.05;;;3.80;;
21591;SDS011;10958;50.892;3.992;2022-10-15T10:52:33;8.15;;;5.53;;
21591;SDS011;10958;50.892;3.992;2022-10-15T10:55:33;4.53;;;3.92;;
21591;SDS011;10958;50.892;3.992;2022-10-15T10:58:00;8.25;;;4.63;;
21591;SDS011;10958;50.892;3.992;2022-10-15T11:00:34;4.45;;;2.72;;
21591;SDS011;10958;50.892;3.992;2022-10-15T11:03:03;3.67;;;3.05;;
21591;SDS011;10958;50.892;3.992;2022-10-15T11:05:33;3.88;;;2.50;;
21591;SDS011;10958;50.892;3.992;2022-10-15T11:10:38;2.88;;;1.02;;
21591;SDS011;10958;50.892;3.992;2022-10-15T11:16:29;3.95;;;0.80;;
21591;SDS011;10958;50.892;3.992;2022-10-15T11:22:16;1.85;;;0.80;;
21591;SDS011;10958;50.892;3.992;2022-10-15T11:27:31;0.85;;;0.85;;
21591;SDS011;10958;50.892;3.992;2022-10-15T11:35:49;0.80;;;0.73;;
21591;SDS011;10958;50.892;3.992;2022-10-15T11:38:22;0.63;;;0.40;;
21591;SDS011;10958;50.892;3.992;2022-10-15T11:41:13;1.48;;;0.52;;
21591;SDS011;10958;50.892;3.992;2022-10-15T11:47:12;1.73;;;1.20;;
21591;SDS011;10958;50.892;3.992;2022-10-15T11:52:32;1.58;;;1.30;;
21591;SDS011;10958;50.892;3.992;2022-10-15T11:57:53;6.10;;;0.63;;
21591;SDS011;10958;50.892;3.992;2022-10-15T12:00:34;1.15;;;0.38;;
21591;SDS011;10958;50.892;3.992;2022-10-15T12:03:14;1.63;;;0.50;;
21591;SDS011;10958;50.892;3.992;2022-10-15T12:06:00;0.80;;;0.43;;
21591;SDS011;10958;50.892;3.992;2022-10-15T12:08:47;0.63;;;0.40;;
21591;SDS011;10958;50.892;3.992;2022-10-15T12:18:03;3.60;;;0.60;;
21591;SDS011;10958;50.892;3.992;2022-10-15T12:20:58;2.03;;;0.50;;
21591;SDS011;10958;50.892;3.992;2022-10-15T12:28:59;0.35;;;0.30;;
21591;SDS011;10958;50.892;3.992;2022-10-15T12:31:43;1.85;;;0.60;;
21591;SDS011;10958;50.892;3.992;2022-10-15T12:34:28;2.13;;;0.63;;
21591;SDS011;10958;50.892;3.992;2022-10-15T12:37:22;0.88;;;0.60;;
21591;SDS011;10958;50.892;3.992;2022-10-15T12:40:00;1.92;;;0.70;;
21591;SDS011;10958;50.892;3.992;2022-10-15T12:42:55;3.70;;;0.93;;
21591;SDS011;10958;50.892;3.992;2022-10-15T12:45:39;2.35;;;0.85;;
21591;SDS011;10958;50.892;3.992;2022-10-15T12:50:39;2.08;;;0.75;;
21591;SDS011;10958;50.892;3.992;2022-10-15T12:58:53;2.75;;;0.90;;
21591;SDS011;10958;50.892;3.992;2022-10-15T13:06:21;2.28;;;0.70;;
21591;SDS011;10958;50.892;3.992;2022-10-15T13:09:15;4.13;;;0.65;;
21591;SDS011;10958;50.892;3.992;2022-10-15T13:11:52;1.83;;;0.88;;
21591;SDS011;10958;50.892;3.992;2022-10-15T13:17:05;5.63;;;0.68;;
21591;SDS011;10958;50.892;3.992;2022-10-15T13:20:06;3.10;;;0.93;;
21591;SDS011;10958;50.892;3.992;2022-10-15T13:22:33;3.17;;;0.60;;
21591;SDS011;10958;50.892;3.992;2022-10-15T13:25:00;3.83;;;0.80;;
21591;SDS011;10958;50.892;3.992;2022-10-15T13:27:36;2.92;;;0.50;;
21591;SDS011;10958;50.892;3.992;2022-10-15T13:32:38;3.72;;;0.75;;
21591;SDS011;10958;50.892;3.992;2022-10-15T13:35:11;3.00;;;1.50;;
21591;SDS011;10958;50.892;3.992;2022-10-15T13:37:42;1.02;;;0.80;;
21591;SDS011;10958;50.892;3.992;2022-10-15T13:40:42;1.60;;;0.70;;
21591;SDS011;10958;50.892;3.992;2022-10-15T13:43:03;5.25;;;0.98;;
21591;SDS011;10958;50.892;3.992;2022-10-15T13:45:31;2.85;;;0.63;;
21591;SDS011;10958;50.892;3.992;2022-10-15T13:47:57;5.47;;;0.70;;
21591;SDS011;10958;50.892;3.992;2022-10-15T13:52:57;3.72;;;0.63;;
21591;SDS011;10958;50.892;3.992;2022-10-15T13:55:27;2.97;;;0.70;;
21591;SDS011;10958;50.892;3.992;2022-10-15T14:03:48;3.05;;;0.77;;
21591;SDS011;10958;50.892;3.992;2022-10-15T14:08:56;4.07;;;0.68;;
21591;SDS011;10958;50.892;3.992;2022-10-15T14:11:24;4.35;;;0.82;;
21591;SDS011;10958;50.892;3.992;2022-10-15T14:13:55;2.10;;;0.50;;
21591;SDS011;10958;50.892;3.992;2022-10-15T14:16:30;1.48;;;0.50;;
21591;SDS011;10958;50.892;3.992;2022-10-15T14:21:33;4.15;;;0.88;;
21591;SDS011;10958;50.892;3.992;2022-10-15T14:24:02;3.10;;;0.70;;
21591;SDS011;10958;50.892;3.992;2022-10-15T14:26:37;2.78;;;0.80;;
21591;SDS011;10958;50.892;3.992;2022-10-15T14:29:04;4.05;;;0.70;;
21591;SDS011;10958;50.892;3.992;2022-10-15T14:31:35;2.58;;;0.60;;
21591;SDS011;10958;50.892;3.992;2022-10-15T14:34:03;1.88;;;0.73;;
21591;SDS011;10958;50.892;3.992;2022-10-15T14:36:41;3.05;;;0.70;;
21591;SDS011;10958;50.892;3.992;2022-10-15T14:39:21;3.28;;;0.80;;
21591;SDS011;10958;50.892;3.992;2022-10-15T14:42:29;3.45;;;0.50;;
21591;SDS011;10958;50.892;3.992;2022-10-15T14:44:56;3.47;;;0.52;;
21591;SDS011;10958;50.892;3.992;2022-10-15T14:47:38;2.45;;;0.80;;
21591;SDS011;10958;50.892;3.992;2022-10-15T14:50:05;2.63;;;0.77;;
21591;SDS011;10958;50.892;3.992;2022-10-15T14:52:31;3.63;;;0.75;;
21591;SDS011;10958;50.892;3.992;2022-10-15T14:55:01;4.82;;;0.68;;
21591;SDS011;10958;50.892;3.992;2022-10-15T14:57:38;3.58;;;0.85;;
21591;SDS011;10958;50.892;3.992;2022-10-15T15:00:13;2.97;;;0.90;;
21591;SDS011;10958;50.892;3.992;2022-10-15T15:02:46;4.82;;;0.90;;
21591;SDS011;10958;50.892;3.992;2022-10-15T15:07:45;3.10;;;0.80;;
21591;SDS011;10958;50.892;3.992;2022-10-15T15:10:12;2.88;;;0.70;;
21591;SDS011;10958;50.892;3.992;2022-10-15T15:12:38;5.40;;;1.40;;
21591;SDS011;10958;50.892;3.992;2022-10-15T15:15:12;4.90;;;1.02;;
21591;SDS011;10958;50.892;3.992;2022-10-15T15:17:41;4.47;;;0.90;;
21591;SDS011;10958;50.892;3.992;2022-10-15T15:20:08;4.00;;;0.68;;
21591;SDS011;10958;50.892;3.992;2022-10-15T15:22:36;4.82;;;0.70;;
21591;SDS011;10958;50.892;3.992;2022-10-15T15:25:05;1.58;;;0.63;;
21591;SDS011;10958;50.892;3.992;2022-10-15T15:27:41;3.90;;;0.73;;
21591;SDS011;10958;50.892;3.992;2022-10-15T15:30:12;3.75;;;0.82;;
21591;SDS011;10958;50.892;3.992;2022-10-15T15:32:44;6.00;;;0.90;;
21591;SDS011;10958;50.892;3.992;2022-10-15T15:35:30;3.38;;;0.93;;
21591;SDS011;10958;50.892;3.992;2022-10-15T15:38:00;1.98;;;0.60;;
21591;SDS011;10958;50.892;3.992;2022-10-15T15:40:26;4.43;;;0.77;;
21591;SDS011;10958;50.892;3.992;2022-10-15T15:42:52;2.38;;;0.90;;
21591;SDS011;10958;50.892;3.992;2022-10-15T15:45:22;3.60;;;1.30;;
21591;SDS011;10958;50.892;3.992;2022-10-15T15:47:49;2.70;;;0.95;;
21591;SDS011;10958;50.892;3.992;2022-10-15T15:50:15;4.13;;;1.00;;
21591;SDS011;10958;50.892;3.992;2022-10-15T15:52:42;4.85;;;1.20;;
21591;SDS011;10958;50.892;3.992;2022-10-15T15:55:11;3.15;;;0.75;;
21591;SDS011;10958;50.892;3.992;2022-10-15T15:57:38;2.65;;;0.70;;
21591;SDS011;10958;50.892;3.992;2022-10-15T16:00:05;3.53;;;0.80;;
21591;SDS011;10958;50.892;3.992;2022-10-15T16:02:37;1.75;;;0.70;;
21591;SDS011;10958;50.892;3.992;2022-10-15T16:05:04;3.00;;;0.80;;
21591;SDS011;10958;50.892;3.992;2022-10-15T16:07:30;6.10;;;0.85;;
21591;SDS011;10958;50.892;3.992;2022-10-15T16:09:56;2.22;;;0.65;;
21591;SDS011;10958;50.892;3.992;2022-10-15T16:12:22;3.50;;;0.80;;
21591;SDS011;10958;50.892;3.992;2022-10-15T16:14:48;8.15;;;1.17;;
21591;SDS011;10958;50.892;3.992;2022-10-15T16:17:14;2.35;;;0.82;;
21591;SDS011;10958;50.892;3.992;2022-10-15T16:19:40;3.20;;;1.10;;
21591;SDS011;10958;50.892;3.992;2022-10-15T16:22:06;3.85;;;0.70;;
21591;SDS011;10958;50.892;3.992;2022-10-15T16:24:32;3.35;;;0.60;;
21591;SDS011;10958;50.892;3.992;2022-10-15T16:26:58;3.33;;;0.90;;
21591;SDS011;10958;50.892;3.992;2022-10-15T16:29:24;2.13;;;0.63;;
21591;SDS011;10958;50.892;3.992;2022-10-15T16:31:50;2.53;;;1.35;;
21591;SDS011;10958;50.892;3.992;2022-10-15T16:34:16;4.18;;;0.88;;
21591;SDS011;10958;50.892;3.992;2022-10-15T16:36:42;2.42;;;0.68;;
21591;SDS011;10958;50.892;3.992;2022-10-15T16:39:10;1.15;;;0.65;;
21591;SDS011;10958;50.892;3.992;2022-10-15T16:41:38;8.48;;;0.95;;
21591;SDS011;10958;50.892;3.992;2022-10-15T16:44:07;14.77;;;9.13;;
21591;SDS011;10958;50.892;3.992;2022-10-15T16:46:32;1.95;;;0.60;;
21591;SDS011;10958;50.892;3.992;2022-10-15T16:48:59;3.80;;;0.95;;
21591;SDS011;10958;50.892;3.992;2022-10-15T16:51:25;3.83;;;1.02;;
21591;SDS011;10958;50.892;3.992;2022-10-15T16:53:53;4.28;;;0.98;;
21591;SDS011;10958;50.892;3.992;2022-10-15T16:58:46;3.17;;;1.33;;
21591;SDS011;10958;50.892;3.992;2022-10-15T17:01:13;4.05;;;1.00;;
21591;SDS011;10958;50.892;3.992;2022-10-15T17:03:41;2.15;;;0.90;;
21591;SDS011;10958;50.892;3.992;2022-10-15T17:06:10;5.35;;;0.80;;
21591;SDS011;10958;50.892;3.992;2022-10-15T17:08:40;2.15;;;0.70;;
21591;SDS011;10958;50.892;3.992;2022-10-15T17:11:09;5.03;;;1.00;;
21591;SDS011;10958;50.892;3.992;2022-10-15T17:13:36;2.55;;;0.90;;
21591;SDS011;10958;50.892;3.992;2022-10-15T17:16:06;7.00;;;0.98;;
21591;SDS011;10958;50.892;3.992;2022-10-15T17:18:39;3.38;;;1.13;;
21591;SDS011;10958;50.892;3.992;2022-10-15T17:21:06;3.65;;;0.80;;